Time;durP1;ratioP1;P1;durP2;ratioP2;P2;SDS_P1;SDS_P2;PMS_P1;PMS_P2;Temp;Humidity;BMP_temperature;BMP_pressure;BME280_temperature;BME280_humidity;BME280_pressure;Samples;Min_cycle;Max_cycle;Signal;HPM_P1;HPM_P2
2023/01/25 00:02:10;;;;;;;4.40;2.67;;;;;;;16.37;35.34;102496.81;5013437;28;20424;-56
2023/01/25 00:04:37;;;;;;;5.38;3.20;;;;;;;16.15;36.00;102495.31;5013379;28;20032;-56
2023/01/25 00:07:03;;;;;;;6.13;3.10;;;;;;;16.22;35.31;102490.78;5013754;28;20064;-56
2023/01/25 00:09:29;;;;;;;5.68;3.33;;;;;;;16.14;35.81;102499.03;5013701;28;20022;-56
2023/01/25 00:11:57;;;;;;;5.25;3.03;;;;;;;16.18;35.91;102500.31;5016903;28;20085;-56
2023/01/25 00:14:23;;;;;;;5.85;3.30;;;;;;;16.13;35.80;102494.69;5032839;28;20029;-54
2023/01/25 00:16:50;;;;;;;6.03;3.03;;;;;;;15.98;36.38;102492.94;5033154;28;20029;-54
2023/01/25 00:19:16;;;;;;;4.07;2.97;;;;;;;15.69;36.98;102490.53;5033039;28;20022;-54
2023/01/25 00:21:42;;;;;;;4.50;3.00;;;;;;;15.79;37.63;102496.41;5033210;28;20026;-55
2023/01/25 00:24:10;;;;;;;4.55;3.08;;;;;;;15.83;37.01;102503.91;5031803;28;20121;-55
2023/01/25 00:26:38;;;;;;;6.28;3.03;;;;;;;15.99;36.82;102500.03;5031067;28;20029;-56
2023/01/25 00:29:04;;;;;;;5.25;2.97;;;;;;;15.71;37.37;102502.81;5032766;28;20065;-56
2023/01/25 00:31:33;;;;;;;5.40;2.85;;;;;;;15.66;37.14;102489.09;5032856;28;20048;-55
2023/01/25 00:34:05;;;;;;;4.32;2.65;;;;;;;15.76;37.22;102486.84;5025403;28;20029;-55
2023/01/25 00:36:37;;;;;;;4.57;2.75;;;;;;;15.66;37.54;102491.78;5014794;28;20156;-56
2023/01/25 00:39:05;;;;;;;4.60;2.72;;;;;;;15.48;37.92;102494.94;5032296;28;20030;-56
2023/01/25 00:41:32;;;;;;;4.60;2.90;;;;;;;15.45;38.12;102489.97;5032382;28;20028;-55
2023/01/25 00:43:58;;;;;;;3.85;2.60;;;;;;;15.68;37.79;102488.88;5032450;28;20030;-55
2023/01/25 00:46:24;;;;;;;3.28;2.35;;;;;;;15.56;38.26;102486.72;5032681;28;20124;-55
2023/01/25 00:48:53;;;;;;;6.47;2.38;;;;;;;15.85;37.94;102484.81;5032621;28;20041;-55
2023/01/25 00:51:20;;;;;;;4.35;3.03;;;;;;;15.27;38.84;102490.47;5032408;28;20375;-55
2023/01/25 00:53:47;;;;;;;5.57;2.70;;;;;;;15.41;38.38;102487.84;5032217;28;20120;-55
2023/01/25 00:56:13;;;;;;;5.90;3.00;;;;;;;15.67;37.71;102488.06;5032537;28;20368;-55
2023/01/25 00:58:41;;;;;;;3.35;1.92;;;;;;;15.71;37.74;102483.94;5030382;28;20112;-56
2023/01/25 01:01:07;;;;;;;7.82;2.63;;;;;;;15.93;36.95;102478.38;5021291;28;20030;-54
2023/01/25 01:03:33;;;;;;;3.38;2.20;;;;;;;15.74;37.52;102471.88;5028932;28;20033;-53
2023/01/25 01:06:04;;;;;;;4.05;2.20;;;;;;;15.70;38.11;102474.13;5025419;28;20113;-55
2023/01/25 01:08:35;;;;;;;4.50;2.47;;;;;;;15.74;38.28;102478.09;5020919;28;20048;-55
2023/01/25 01:11:04;;;;;;;3.40;2.00;;;;;;;15.70;38.72;102481.41;5031829;28;20030;-55
2023/01/25 01:13:31;;;;;;;3.83;2.60;;;;;;;15.92;37.68;102482.97;5024246;28;20020;-55
2023/01/25 01:16:04;;;;;;;5.60;2.70;;;;;;;15.95;37.98;102484.44;5031954;28;20549;-55
2023/01/25 01:18:35;;;;;;;4.30;2.78;;;;;;;16.10;37.39;102477.00;5032167;28;20029;-55
2023/01/25 01:21:02;;;;;;;4.13;2.75;;;;;;;15.99;37.92;102481.13;5031337;28;20431;-55
2023/01/25 01:23:29;;;;;;;4.93;2.95;;;;;;;15.79;38.50;102481.03;5031512;28;20025;-55
2023/01/25 01:25:58;;;;;;;3.80;2.65;;;;;;;15.46;38.70;102475.44;5031654;28;20022;-55
2023/01/25 01:28:25;;;;;;;4.07;3.33;;;;;;;15.27;39.12;102471.59;5037645;23;20041;-56
2023/01/25 01:30:51;;;;;;;6.05;3.47;;;;;;;15.17;39.39;102465.72;5031814;28;20418;-55
2023/01/25 01:33:17;;;;;;;3.70;2.80;;;;;;;15.32;40.25;102469.13;5031587;28;20507;-55
2023/01/25 01:35:45;;;;;;;5.43;3.47;;;;;;;15.12;40.69;102473.56;5031554;28;20460;-55
2023/01/25 01:38:12;;;;;;;5.68;3.80;;;;;;;15.13;40.83;102469.00;5032201;28;20036;-55
2023/01/25 01:40:44;;;;;;;6.63;3.85;;;;;;;14.91;41.20;102471.72;5051483;28;20025;-55
2023/01/25 01:43:22;;;;;;;6.30;3.67;;;;;;;14.79;41.16;102470.59;5051525;28;20421;-55
2023/01/25 01:45:48;;;;;;;4.57;3.45;;;;;;;14.63;41.81;102466.28;5051335;28;20442;-53
2023/01/25 01:48:48;;;;;;;4.15;2.90;;;;;;;14.44;42.57;102466.91;5051147;28;20538;-55
2023/01/25 01:51:14;;;;;;;4.35;2.40;;;;;;;14.53;42.48;102480.09;5026844;28;20091;-54
2023/01/25 01:53:45;;;;;;;4.90;2.97;;;;;;;14.48;43.10;102471.75;5045120;28;20041;-53
2023/01/25 01:56:19;;;;;;;6.10;3.00;;;;;;;14.61;43.21;102475.63;5032886;28;20380;-55
2023/01/25 01:58:48;;;;;;;8.27;3.00;;;;;;;14.34;43.64;102471.78;5048392;28;20052;-54
2023/01/25 02:01:16;;;;;;;5.72;2.88;;;;;;;14.23;43.68;102471.25;5039558;28;20083;-54
2023/01/25 02:03:43;;;;;;;3.35;2.22;;;;;;;14.17;44.20;102474.72;5050819;28;20106;-54
2023/01/25 02:06:15;;;;;;;2.95;2.25;;;;;;;14.02;44.31;102471.22;5051297;28;20123;-53
2023/01/25 02:08:42;;;;;;;3.88;2.92;;;;;;;13.98;43.99;102483.38;5050618;28;20037;-56
2023/01/25 02:11:12;;;;;;;4.88;2.70;;;;;;;14.07;43.52;102479.56;5051130;28;20551;-55
2023/01/25 02:13:38;;;;;;;4.53;2.30;;;;;;;13.88;44.13;102491.78;5050860;28;20033;-56
2023/01/25 02:16:13;;;;;;;3.33;2.05;;;;;;;13.74;44.29;102479.16;5033598;28;20155;-55
2023/01/25 02:18:39;;;;;;;5.43;2.43;;;;;;;13.63;44.97;102495.75;5051130;28;20479;-55
2023/01/25 02:21:05;;;;;;;3.88;2.72;;;;;;;13.50;44.95;102488.34;5050687;28;20090;-56
2023/01/25 02:23:53;;;;;;;3.22;2.30;;;;;;;13.38;45.24;102493.34;5050999;28;20021;-55
2023/01/25 02:26:21;;;;;;;3.28;2.45;;;;;;;13.21;46.32;102494.50;5033243;28;20052;-56
2023/01/25 02:29:04;;;;;;;5.85;3.90;;;;;;;13.10;47.28;102501.16;5050838;28;20101;-55
2023/01/25 02:31:31;;;;;;;4.38;3.20;;;;;;;13.05;46.89;102500.88;5049367;28;20471;-54
2023/01/25 02:33:57;;;;;;;5.20;3.33;;;;;;;12.97;47.04;102500.09;5045038;28;20483;-54
2023/01/25 02:36:29;;;;;;;4.55;3.03;;;;;;;12.89;47.20;102506.38;5050809;28;20045;-54
2023/01/25 02:39:01;;;;;;;4.97;3.42;;;;;;;12.86;47.29;102498.66;5050743;28;20064;-54
2023/01/25 02:41:37;;;;;;;4.93;3.20;;;;;;;12.76;47.38;102498.06;5050924;28;20112;-54
2023/01/25 02:44:07;;;;;;;5.28;3.05;;;;;;;12.68;47.45;102493.59;5050794;28;20380;-54
2023/01/25 02:46:36;;;;;;;7.50;3.28;;;;;;;12.79;48.01;102501.25;5051194;28;20390;-54
2023/01/25 02:49:04;;;;;;;6.97;3.30;;;;;;;12.97;47.66;102500.94;5054193;28;20108;-54
2023/01/25 02:51:33;;;;;;;4.13;2.97;;;;;;;12.66;48.16;102499.16;5054681;28;20025;-54
2023/01/25 02:54:00;;;;;;;7.05;3.80;;;;;;;12.75;48.85;102494.56;5053988;28;20071;-55
2023/01/25 02:56:28;;;;;;;7.97;3.95;;;;;;;12.52;49.03;102494.56;5053978;28;20025;-54
2023/01/25 02:58:54;;;;;;;4.40;3.50;;;;;;;12.34;48.99;102497.53;5050282;28;20017;-53
2023/01/25 03:01:21;;;;;;;8.27;3.95;;;;;;;12.24;49.47;102496.09;5034730;28;20026;-54
2023/01/25 03:03:47;;;;;;;6.63;4.18;;;;;;;12.14;49.78;102499.81;5034190;28;20041;-54
2023/01/25 03:06:14;;;;;;;6.90;3.50;;;;;;;12.13;50.16;102500.84;5034191;28;20457;-55
2023/01/25 03:08:42;;;;;;;5.50;3.53;;;;;;;12.03;50.59;102491.31;5037623;28;20017;-54
2023/01/25 03:11:08;;;;;;;4.43;3.13;;;;;;;12.32;49.04;102494.16;5053785;28;20068;-54
2023/01/25 03:13:35;;;;;;;3.83;2.50;;;;;;;12.25;48.67;102501.25;5053499;28;20033;-53
2023/01/25 03:16:07;;;;;;;4.28;2.67;;;;;;;12.31;49.07;102515.84;5054080;28;20056;-54
2023/01/25 03:18:34;;;;;;;5.18;3.53;;;;;;;11.91;50.16;102516.88;5054179;28;20021;-53
2023/01/25 03:21:16;;;;;;;5.15;3.20;;;;;;;11.66;50.74;102516.94;5053892;28;20021;-54
2023/01/25 03:23:44;;;;;;;5.50;3.20;;;;;;;11.54;50.97;102518.28;5054232;28;20056;-53
2023/01/25 03:26:19;;;;;;;12.80;4.53;;;;;;;11.60;51.89;102520.28;5053867;28;20061;-54
2023/01/25 03:28:46;;;;;;;6.53;3.67;;;;;;;11.80;51.79;102524.25;5053288;28;20391;-53
2023/01/25 03:31:14;;;;;;;4.75;3.67;;;;;;;11.62;51.98;102520.97;5054109;28;20041;-53
2023/01/25 03:33:41;;;;;;;5.10;3.65;;;;;;;11.39;52.75;102515.50;5052429;28;20031;-53
2023/01/25 03:36:08;;;;;;;5.75;3.72;;;;;;;11.12;53.91;102531.94;5050846;28;20021;-54
2023/01/25 03:38:34;;;;;;;6.35;3.40;;;;;;;10.84;54.54;102533.09;5053479;28;20029;-54
2023/01/25 03:41:02;;;;;;;3.35;3.00;;;;;;;10.71;55.03;102535.41;5050639;28;20017;-54
2023/01/25 03:43:29;;;;;;;5.30;3.55;;;;;;;10.98;54.30;102536.09;5051468;28;20036;-53
2023/01/25 03:45:57;;;;;;;5.88;3.63;;;;;;;10.58;55.35;102535.06;5053623;28;20017;-54
2023/01/25 03:48:25;;;;;;;6.68;3.85;;;;;;;10.33;56.36;102531.50;5051790;28;20025;-54
2023/01/25 03:50:57;;;;;;;4.38;3.90;;;;;;;10.52;55.75;102530.38;5053505;28;20036;-53
2023/01/25 03:53:28;;;;;;;22.58;12.15;;;;;;;10.24;57.08;102533.31;5051687;28;20104;-53
2023/01/25 03:55:59;;;;;;;14.27;8.07;;;;;;;10.47;56.67;102533.53;5053642;28;20033;-53
2023/01/25 03:58:26;;;;;;;10.80;5.85;;;;;;;10.49;56.38;102538.72;5050457;28;20032;-53
2023/01/25 04:00:55;;;;;;;7.53;5.32;;;;;;;10.30;56.61;102531.81;5051563;28;20029;-54
2023/01/25 04:03:22;;;;;;;11.30;7.15;;;;;;;10.28;56.41;102534.66;5053058;28;20071;-54
2023/01/25 04:05:49;;;;;;;19.40;11.35;;;;;;;10.42;56.50;102530.50;5049755;28;20036;-53
2023/01/25 04:08:15;;;;;;;11.63;8.80;;;;;;;10.30;56.50;102535.34;5053245;28;20032;-54
2023/01/25 04:10:42;;;;;;;10.50;7.03;;;;;;;10.20;57.02;102542.63;5050797;28;20051;-54
2023/01/25 04:13:09;;;;;;;9.23;6.03;;;;;;;10.23;56.58;102536.13;5051346;28;20501;-54
2023/01/25 04:15:35;;;;;;;9.13;5.60;;;;;;;10.13;56.81;102535.41;5052158;28;20438;-54
2023/01/25 04:18:02;;;;;;;8.50;5.18;;;;;;;10.02;56.91;102545.41;5052924;28;20118;-54
2023/01/25 04:20:28;;;;;;;6.63;4.63;;;;;;;10.35;56.74;102550.06;5053194;28;20057;-54
2023/01/25 04:22:54;;;;;;;7.20;4.55;;;;;;;10.05;56.88;102560.31;5051385;28;20037;-54
2023/01/25 04:25:21;;;;;;;6.05;4.05;;;;;;;10.26;57.04;102557.22;5052997;28;20033;-54
2023/01/25 04:27:48;;;;;;;5.65;4.10;;;;;;;10.04;57.16;102555.94;5051271;28;20112;-53
2023/01/25 04:30:15;;;;;;;5.68;4.18;;;;;;;9.79;58.15;102549.63;5053095;28;20025;-54
2023/01/25 04:32:41;;;;;;;5.38;4.30;;;;;;;10.16;57.72;102557.34;5051534;28;20171;-54
2023/01/25 04:35:08;;;;;;;8.20;4.45;;;;;;;10.26;56.90;102559.91;5052610;28;20382;-53
2023/01/25 04:37:34;;;;;;;6.80;4.85;;;;;;;9.96;58.05;102558.59;5049563;28;20550;-53
2023/01/25 04:40:00;;;;;;;6.03;4.57;;;;;;;10.10;57.38;102562.47;5049786;28;20099;-54
2023/01/25 04:42:27;;;;;;;7.60;4.75;;;;;;;10.14;57.09;102564.69;5033255;28;20498;-54
2023/01/25 04:44:53;;;;;;;6.28;4.35;;;;;;;9.73;57.84;102567.16;5049521;28;20029;-55
2023/01/25 04:47:19;;;;;;;5.50;4.25;;;;;;;9.57;58.52;102567.06;5052403;28;20071;-53
2023/01/25 04:49:45;;;;;;;6.55;3.97;;;;;;;9.39;59.09;102563.59;5051303;28;20075;-54
2023/01/25 04:52:12;;;;;;;6.22;4.28;;;;;;;9.14;59.93;102566.06;5049723;28;20035;-54
2023/01/25 04:54:38;;;;;;;5.22;4.65;;;;;;;9.16;60.18;102572.09;5049907;28;20152;-54
2023/01/25 04:57:04;;;;;;;5.80;4.70;;;;;;;9.19;59.96;102569.09;5052201;28;20531;-54
2023/01/25 04:59:30;;;;;;;7.18;4.72;;;;;;;9.36;59.66;102571.91;5050613;28;20056;-54
2023/01/25 05:01:56;;;;;;;6.00;4.25;;;;;;;9.30;59.57;102581.38;5046439;28;20110;-53
2023/01/25 05:04:23;;;;;;;5.95;4.40;;;;;;;9.29;59.62;102573.53;5051747;28;20025;-54
2023/01/25 05:06:49;;;;;;;9.48;4.55;;;;;;;9.07;59.99;102570.34;5052145;28;20029;-54
2023/01/25 05:09:16;;;;;;;7.07;4.68;;;;;;;9.04;60.43;102567.13;5051367;28;20100;-54
2023/01/25 05:11:42;;;;;;;7.07;4.53;;;;;;;9.38;59.51;102570.75;5048798;28;20402;-54
2023/01/25 05:14:08;;;;;;;8.18;4.60;;;;;;;9.28;59.64;102571.88;5051198;28;20387;-54
2023/01/25 05:16:35;;;;;;;5.97;4.43;;;;;;;9.33;59.76;102572.22;5047105;28;20031;-53
2023/01/25 05:19:01;;;;;;;5.80;4.40;;;;;;;9.29;60.15;102578.88;5051820;28;20032;-55
2023/01/25 05:24:12;;;;;;;6.18;4.07;;;;;;;8.98;60.87;102581.94;5050629;28;20067;-51
2023/01/25 05:29:22;;;;;;;5.90;4.80;;;;;;;8.80;61.91;102589.13;5050630;28;20263;-53
2023/01/25 05:31:48;;;;;;;6.78;4.47;;;;;;;8.60;62.43;102580.38;5051564;28;20029;-53
2023/01/25 05:34:15;;;;;;;9.00;4.32;;;;;;;8.95;61.55;102588.44;5048220;28;20411;-53
2023/01/25 05:36:41;;;;;;;7.55;4.68;;;;;;;9.06;60.89;102579.34;5051437;28;20025;-51
2023/01/25 05:39:07;;;;;;;5.60;4.10;;;;;;;9.00;61.25;102585.31;5051361;28;20032;-54
2023/01/25 05:41:34;;;;;;;6.70;4.10;;;;;;;8.73;61.38;102581.72;5051771;28;20056;-53
2023/01/25 05:44:00;;;;;;;5.35;4.03;;;;;;;8.51;61.96;102595.50;5047159;28;20093;-53
2023/01/25 05:46:27;;;;;;;5.68;4.13;;;;;;;8.40;62.80;102593.84;5051417;28;20095;-53
2023/01/25 05:48:54;;;;;;;5.30;4.20;;;;;;;8.45;63.09;102601.44;5049215;28;20114;-53
2023/01/25 05:51:20;;;;;;;5.90;3.78;;;;;;;8.28;63.46;102594.19;5051502;28;20025;-53
2023/01/25 05:53:46;;;;;;;7.22;4.63;;;;;;;8.02;64.10;102591.34;5049105;28;20055;-53
2023/01/25 05:56:12;;;;;;;5.13;4.40;;;;;;;8.14;63.92;102593.66;5051233;28;20047;-53
2023/01/25 05:58:39;;;;;;;6.75;4.50;;;;;;;7.97;64.34;102586.44;5050865;28;20048;-53
2023/01/25 06:01:06;;;;;;;5.32;3.83;;;;;;;8.06;63.97;102584.72;5050064;28;20082;-54
2023/01/25 06:03:33;;;;;;;8.45;4.60;;;;;;;7.84;64.74;102591.25;5051237;28;20098;-54
2023/01/25 06:06:01;;;;;;;8.63;4.00;;;;;;;7.90;64.45;102585.34;5048282;28;20412;-53
2023/01/25 06:08:31;;;;;;;8.18;4.53;;;;;;;8.25;63.56;102583.78;5051155;28;20476;-53
2023/01/25 06:10:58;;;;;;;6.80;4.60;;;;;;;8.26;63.06;102586.31;5050584;28;20537;-54
2023/01/25 06:13:24;;;;;;;6.13;4.53;;;;;;;8.17;63.04;102587.22;5051042;28;20091;-53
2023/01/25 06:15:57;;;;;;;8.13;4.68;;;;;;;8.05;63.61;102588.34;5031390;28;20433;-53
2023/01/25 06:18:23;;;;;;;6.32;4.35;;;;;;;8.18;63.50;102589.72;5031101;28;20028;-53
2023/01/25 06:20:50;;;;;;;7.30;4.22;;;;;;;8.08;62.99;102588.09;5031079;28;20034;-53
2023/01/25 06:23:16;;;;;;;6.45;4.75;;;;;;;8.08;63.21;102594.25;5052399;28;20033;-53
2023/01/25 06:25:43;;;;;;;4.75;4.07;;;;;;;8.00;63.39;102598.66;5055036;28;20033;-53
2023/01/25 06:28:09;;;;;;;6.13;4.03;;;;;;;7.93;63.56;102601.88;5053120;28;20095;-53
2023/01/25 06:30:35;;;;;;;7.55;4.47;;;;;;;8.23;63.22;102601.78;5054981;28;20036;-53
2023/01/25 06:33:02;;;;;;;5.10;4.10;;;;;;;8.35;62.59;102613.94;5053887;28;20033;-53
2023/01/25 06:35:30;;;;;;;5.88;4.43;;;;;;;8.31;62.77;102613.38;5054868;28;20112;-53
2023/01/25 06:37:57;;;;;;;5.50;3.90;;;;;;;8.15;62.88;102613.16;5052550;28;20036;-53
2023/01/25 06:40:24;;;;;;;5.57;4.13;;;;;;;8.02;63.01;102615.34;5053415;28;20107;-53
2023/01/25 06:42:50;;;;;;;7.47;4.25;;;;;;;7.91;63.19;102613.69;5054294;28;20446;-53
2023/01/25 06:45:16;;;;;;;6.00;3.90;;;;;;;7.87;63.13;102606.97;5053136;28;20028;-53
2023/01/25 06:47:42;;;;;;;5.45;4.07;;;;;;;8.12;62.99;102611.66;5054962;28;20020;-53
2023/01/25 06:50:10;;;;;;;5.30;3.90;;;;;;;7.95;63.11;102604.41;5053599;28;20772;-53
2023/01/25 06:52:36;;;;;;;5.95;4.15;;;;;;;7.99;62.85;102611.13;5054379;28;20080;-54
2023/01/25 06:55:07;;;;;;;4.60;4.07;;;;;;;8.29;62.16;102606.53;5052571;28;20036;-53
2023/01/25 06:57:33;;;;;;;4.10;3.65;;;;;;;8.28;62.14;102611.03;5054807;28;20025;-50
2023/01/25 07:00:00;;;;;;;4.07;3.33;;;;;;;8.27;62.10;102614.66;5052929;28;20536;-53
2023/01/25 07:02:26;;;;;;;3.97;3.45;;;;;;;8.25;62.33;102610.47;5054463;28;20032;-53
2023/01/25 07:04:52;;;;;;;5.45;3.88;;;;;;;8.17;62.40;102613.88;5052039;28;20055;-52
2023/01/25 07:07:18;;;;;;;8.15;3.97;;;;;;;7.89;63.04;102613.84;5054114;28;20033;-53
2023/01/25 07:09:44;;;;;;;5.57;3.83;;;;;;;7.52;63.96;102611.09;5051988;28;20456;-52
2023/01/25 07:12:11;;;;;;;6.70;4.07;;;;;;;7.68;64.04;102614.03;5053740;28;20100;-52
2023/01/25 07:14:37;;;;;;;4.93;3.97;;;;;;;7.56;64.73;102614.34;5052264;28;20029;-53
2023/01/25 07:17:03;;;;;;;7.68;4.30;;;;;;;7.85;63.65;102612.44;5050250;28;20108;-51
2023/01/25 07:19:30;;;;;;;5.85;4.00;;;;;;;7.74;63.88;102611.78;5054228;28;20029;-53
2023/01/25 07:21:56;;;;;;;6.05;3.85;;;;;;;7.24;65.21;102610.16;5052767;28;20483;-52
2023/01/25 07:24:25;;;;;;;3.85;3.45;;;;;;;7.18;65.94;102616.03;5036984;28;20511;-53
2023/01/25 07:26:52;;;;;;;4.57;3.17;;;;;;;7.12;66.16;102621.94;5046053;28;20032;-51
2023/01/25 07:29:18;;;;;;;4.18;3.60;;;;;;;7.09;66.86;102617.72;5053874;28;20514;-53
2023/01/25 07:31:44;;;;;;;6.35;3.08;;;;;;;7.36;66.10;102616.16;5050639;28;20036;-53
2023/01/25 07:34:12;;;;;;;3.95;3.55;;;;;;;7.39;65.74;102618.56;5033264;28;20056;-51
2023/01/25 07:36:38;;;;;;;5.18;3.40;;;;;;;7.26;66.21;102620.66;5034023;28;20357;-53
2023/01/25 07:39:08;;;;;;;4.50;3.55;;;;;;;7.34;65.88;102611.00;5035341;28;20030;-51
2023/01/25 07:41:34;;;;;;;5.07;4.00;;;;;;;6.99;66.93;102616.84;5053679;28;20096;-53
2023/01/25 07:44:00;;;;;;;5.55;3.88;;;;;;;6.76;67.70;102612.78;5050825;28;20045;-49
2023/01/25 07:46:26;;;;;;;6.35;3.78;;;;;;;6.91;67.57;102623.88;5053424;28;20104;-48
2023/01/25 07:48:53;;;;;;;5.18;3.47;;;;;;;6.89;67.29;102613.38;5053552;28;20021;-52
2023/01/25 07:51:22;;;;;;;4.20;3.80;;;;;;;6.79;67.48;102617.84;5053182;28;20033;-52
2023/01/25 07:53:53;;;;;;;4.82;4.13;;;;;;;7.01;67.20;102616.75;5044732;28;20040;-51
2023/01/25 07:56:22;;;;;;;4.47;3.42;;;;;;;7.07;66.78;102609.03;5033908;28;20399;-52
2023/01/25 07:58:48;;;;;;;4.65;3.65;;;;;;;7.33;65.89;102614.66;5033739;28;20440;-52
2023/01/25 08:01:17;;;;;;;4.55;3.90;;;;;;;7.30;65.80;102614.06;5040629;28;20025;-50
2023/01/25 08:03:43;;;;;;;6.05;4.28;;;;;;;7.23;65.99;102612.97;5053381;28;20391;-53
2023/01/25 08:06:10;;;;;;;7.35;3.97;;;;;;;7.04;66.57;102606.63;5054000;28;20518;-51
2023/01/25 08:08:39;;;;;;;6.93;3.88;;;;;;;6.80;67.22;102608.88;5053534;28;20017;-51
2023/01/25 08:11:15;;;;;;;5.32;3.95;;;;;;;6.80;67.23;102607.03;5052439;28;20025;-53
2023/01/25 08:13:45;;;;;;;4.70;3.63;;;;;;;6.96;66.66;102606.50;5053236;28;20502;-54
2023/01/25 08:16:13;;;;;;;4.53;3.60;;;;;;;7.03;66.12;102604.97;5053516;28;20094;-52
2023/01/25 08:18:39;;;;;;;5.43;3.83;;;;;;;7.15;66.09;102598.50;5050704;23;20132;-53
2023/01/25 08:21:05;;;;;;;5.15;4.38;;;;;;;6.93;66.38;102596.13;5033078;28;20665;-51
2023/01/25 08:23:32;;;;;;;4.65;4.10;;;;;;;6.76;66.97;102592.31;5033041;28;20107;-53
2023/01/25 08:26:06;;;;;;;7.18;3.72;;;;;;;6.92;67.25;102604.25;5031461;28;20041;-53
2023/01/25 08:28:33;;;;;;;4.47;3.67;;;;;;;6.71;67.22;102605.19;5012842;28;20476;-51
2023/01/25 08:31:26;;;;;;;5.32;3.72;;;;;;;6.63;67.27;102601.56;5016163;28;20032;-51
2023/01/25 08:33:54;;;;;;;3.33;3.03;;;;;;;6.50;67.55;102605.31;5017708;28;20041;-53
2023/01/25 08:36:23;;;;;;;4.97;3.25;;;;;;;6.47;67.47;102599.41;5032552;28;20033;-53
2023/01/25 08:39:12;;;;;;;4.97;4.00;;;;;;;6.63;67.26;102589.09;5030962;28;20056;-52
2023/01/25 08:41:39;;;;;;;3.63;3.20;;;;;;;6.87;66.99;102591.34;5031833;28;20200;-53
2023/01/25 08:44:05;;;;;;;5.75;4.07;;;;;;;7.08;66.46;102593.91;5028396;28;20030;-53
2023/01/25 08:46:33;;;;;;;3.92;3.30;;;;;;;6.70;67.11;102595.53;5012423;28;20034;-52
2023/01/25 08:49:01;;;;;;;4.95;4.00;;;;;;;6.48;68.23;102591.28;5023696;28;20033;-50
2023/01/25 12:00:10;;;;;;;3.35;2.78;;;;;;;5.02;76.11;102624.13;4994653;28;20048;-52
2023/01/25 12:02:51;;;;;;;4.35;3.55;;;;;;;5.06;75.81;102615.94;4990305;28;20046;-50
2023/01/25 12:05:39;;;;;;;4.45;3.17;;;;;;;5.19;75.48;102600.66;4993988;28;20034;-50
2023/01/25 12:08:34;;;;;;;4.70;3.35;;;;;;;5.29;74.58;102607.72;4992729;28;20038;-50
2023/01/25 12:11:09;;;;;;;5.88;3.58;;;;;;;5.17;74.83;102607.91;4993434;28;20030;-52
2023/01/25 12:13:41;;;;;;;4.25;3.45;;;;;;;5.34;74.30;102603.84;4993904;28;20053;-50
2023/01/25 12:16:40;;;;;;;6.63;4.75;;;;;;;5.18;74.27;102605.13;4993618;28;20493;-50
2023/01/25 12:19:09;;;;;;;6.20;5.00;;;;;;;5.27;73.93;102604.38;4993130;28;20097;-50
2023/01/25 12:21:54;;;;;;;6.45;5.55;;;;;;;5.18;74.27;102601.63;4993082;28;20104;-49
2023/01/25 12:24:52;;;;;;;7.10;6.30;;;;;;;5.15;75.48;102599.22;4993764;28;20042;-50
2023/01/25 12:27:47;;;;;;;8.05;6.60;;;;;;;5.41;74.25;102594.41;4994034;28;20452;-50
2023/01/25 12:30:22;;;;;;;6.72;6.00;;;;;;;5.22;74.49;102603.06;4990930;28;20393;-50
2023/01/25 12:33:03;;;;;;;7.20;6.03;;;;;;;4.90;75.66;102601.25;4990713;28;20042;-51
2023/01/25 12:35:37;;;;;;;7.55;5.80;;;;;;;4.98;75.04;102604.09;4990980;28;20042;-53
2023/01/25 12:38:12;;;;;;;5.95;5.22;;;;;;;4.97;75.44;102606.91;4991420;28;20507;-53
2023/01/25 12:40:48;;;;;;;5.55;4.80;;;;;;;4.88;75.45;102592.56;4990930;28;20042;-52
2023/01/25 12:43:38;;;;;;;4.72;4.30;;;;;;;4.85;75.29;102598.13;4986889;28;20034;-52
2023/01/25 12:46:34;;;;;;;6.00;5.40;;;;;;;4.84;74.59;102587.66;4981528;28;20230;-52
2023/01/25 12:49:08;;;;;;;5.22;3.83;;;;;;;4.80;75.06;102589.72;4983481;28;20536;-52
2023/01/25 12:51:39;;;;;;;5.38;4.20;;;;;;;4.82;74.55;102593.06;4989564;28;20077;-50
2023/01/25 12:54:31;;;;;;;4.80;3.85;;;;;;;4.82;74.42;102587.75;4981415;28;20030;-52
2023/01/25 12:57:11;;;;;;;5.68;4.43;;;;;;;4.83;75.12;102589.47;4983880;28;20037;-53
2023/01/25 13:00:01;;;;;;;6.28;3.35;;;;;;;4.81;75.21;102585.25;4990393;28;20030;-50
2023/01/25 13:02:42;;;;;;;4.75;3.85;;;;;;;4.61;76.15;102589.50;5029267;28;20068;-51
2023/01/25 13:05:29;;;;;;;6.45;3.30;;;;;;;4.73;75.96;102592.03;5032548;28;20041;-49
2023/01/25 13:08:10;;;;;;;4.60;3.72;;;;;;;4.72;75.74;102582.38;5018028;28;20025;-49
2023/01/25 13:10:44;;;;;;;5.18;3.78;;;;;;;4.75;75.60;102581.28;5025947;28;20024;-49
2023/01/25 13:13:26;;;;;;;4.45;3.80;;;;;;;4.76;75.38;102590.91;5031964;28;20186;-49
2023/01/25 13:15:54;;;;;;;5.30;4.00;;;;;;;5.02;74.36;102584.31;5032333;28;20108;-50
2023/01/25 13:18:31;;;;;;;5.60;4.13;;;;;;;4.80;75.34;102597.66;5032271;28;20044;-51
2023/01/25 13:21:07;;;;;;;6.53;3.92;;;;;;;4.89;75.40;102594.28;5029799;28;20076;-49
2023/01/25 13:23:50;;;;;;;5.35;4.07;;;;;;;4.93;75.37;102584.22;5011869;28;20469;-52
2023/01/25 13:26:23;;;;;;;5.72;4.22;;;;;;;4.88;75.13;102595.22;5012155;28;20033;-49
2023/01/25 13:28:54;;;;;;;4.90;4.13;;;;;;;5.04;74.75;102587.69;5019329;28;20108;-49
2023/01/25 13:31:38;;;;;;;8.60;4.70;;;;;;;5.00;74.54;102591.56;5029554;28;20040;-52
2023/01/25 13:34:38;;;;;;;6.63;4.45;;;;;;;5.00;74.44;102588.91;5030706;28;20506;-49
2023/01/25 13:37:21;;;;;;;7.45;4.68;;;;;;;5.10;74.01;102588.97;5011629;28;20049;-49
2023/01/25 13:39:50;;;;;;;7.25;4.43;;;;;;;5.13;73.41;102595.88;5025815;28;20037;-49
2023/01/25 13:42:25;;;;;;;6.78;4.93;;;;;;;5.08;73.79;102598.06;5030880;28;20028;-50
2023/01/25 13:45:17;;;;;;;6.43;5.00;;;;;;;5.12;73.63;102608.28;5030043;28;20076;-51
2023/01/25 13:47:58;;;;;;;9.68;4.97;;;;;;;4.92;74.22;102617.03;5026687;28;20369;-50
2023/01/25 13:50:28;;;;;;;8.55;6.05;;;;;;;5.22;73.36;102609.22;5030907;28;20435;-50
2023/01/25 13:53:01;;;;;;;7.40;5.22;;;;;;;5.37;73.15;102622.16;5040928;28;20081;-50
2023/01/25 13:55:29;;;;;;;6.72;4.60;;;;;;;5.24;72.66;102620.53;5033848;28;20122;-53
2023/01/25 13:58:16;;;;;;;7.93;6.13;;;;;;;5.11;73.36;102608.41;5031051;28;20099;-52
2023/01/25 14:01:07;;;;;;;8.82;6.28;;;;;;;5.33;73.04;102612.75;5030844;28;20049;-51
2023/01/25 14:03:39;;;;;;;7.32;5.90;;;;;;;5.28;72.73;102619.31;5031500;28;20395;-52
2023/01/25 14:06:13;;;;;;;8.93;6.35;;;;;;;5.26;72.49;102615.94;5023597;28;20476;-52
2023/01/25 14:08:41;;;;;;;12.75;6.35;;;;;;;5.22;72.85;102608.38;5014059;28;20087;-53
2023/01/25 14:11:08;;;;;;;8.02;5.60;;;;;;;5.40;72.32;102614.81;5022986;28;20427;-52
2023/01/25 14:13:34;;;;;;;8.30;6.00;;;;;;;5.34;72.74;102617.97;5030838;28;20025;-52
2023/01/25 14:16:04;;;;;;;9.20;6.40;;;;;;;5.45;72.22;102617.06;5019314;28;20030;-52
2023/01/25 14:18:37;;;;;;;9.75;7.18;;;;;;;5.58;71.38;102615.06;5028181;28;20083;-53
2023/01/25 14:21:29;;;;;;;8.27;6.15;;;;;;;5.51;71.42;102613.91;5028374;28;20105;-52
2023/01/25 14:24:09;;;;;;;7.00;5.85;;;;;;;5.78;69.93;102613.38;5027440;28;20045;-52
2023/01/25 14:26:37;;;;;;;6.72;5.68;;;;;;;5.98;69.19;102617.84;5024136;28;20170;-51
2023/01/25 14:29:14;;;;;;;8.95;5.85;;;;;;;5.95;69.13;102625.25;5030066;28;20053;-50
2023/01/25 14:31:41;;;;;;;11.20;5.90;;;;;;;5.89;69.45;102625.75;5031413;28;20108;-51
2023/01/25 14:34:17;;;;;;;8.93;6.43;;;;;;;5.90;69.32;102622.94;5022427;28;21998;-52
2023/01/25 14:36:44;;;;;;;10.55;6.45;;;;;;;5.85;69.33;102621.66;5011876;28;20449;-51
2023/01/25 14:39:24;;;;;;;7.65;5.93;;;;;;;6.03;68.69;102625.41;5030282;28;20037;-52
2023/01/25 14:41:53;;;;;;;7.93;6.15;;;;;;;5.87;68.91;102633.81;5011196;28;20022;-49
2023/01/25 14:44:20;;;;;;;7.75;6.30;;;;;;;5.96;68.67;102634.91;5024929;28;20130;-50
2023/01/25 14:46:47;;;;;;;10.85;6.90;;;;;;;5.77;69.51;102643.56;5035058;28;20029;-52
2023/01/25 14:49:27;;;;;;;11.63;7.35;;;;;;;5.92;68.73;102636.97;5032786;28;20120;-49
2023/01/25 14:52:18;;;;;;;10.82;6.07;;;;;;;5.79;69.56;102641.63;5033702;28;20034;-52
2023/01/25 14:54:51;;;;;;;8.65;6.80;;;;;;;5.62;70.42;102643.06;5034755;28;20037;-49
2023/01/25 14:57:23;;;;;;;9.18;6.50;;;;;;;5.74;69.96;102639.34;5033719;28;20379;-50
2023/01/25 14:59:55;;;;;;;10.10;6.78;;;;;;;5.77;69.97;102647.09;5034169;28;20083;-51